Time;durP1;ratioP1;P1;durP2;ratioP2;P2;SDS_P1;SDS_P2;PMS_P1;PMS_P2;Temp;Humidity;BMP_temperature;BMP_pressure;BME280_temperature;BME280_humidity;BME280_pressure;Samples;Min_cycle;Max_cycle;Signal;HPM_P1;HPM_P2
2023/12/12 00:01:22;;;;;;;12.88;5.88;;;;;;;6.65;100.00;100593.91;5069721;28;20059;-57
2023/12/12 00:03:52;;;;;;;12.73;4.88;;;;;;;6.64;100.00;100593.97;5070456;28;20046;-57
2023/12/12 00:06:24;;;;;;;11.75;5.22;;;;;;;6.62;100.00;100590.63;5072825;28;20441;-56
2023/12/12 00:08:52;;;;;;;13.88;5.63;;;;;;;6.59;100.00;100597.69;5072444;28;20520;-57
2023/12/12 00:11:20;;;;;;;15.52;5.78;;;;;;;6.59;100.00;100599.47;5068339;28;20045;-56
2023/12/12 00:13:48;;;;;;;14.32;5.95;;;;;;;6.55;100.00;100601.38;5069107;28;20127;-57
2023/12/12 00:16:17;;;;;;;13.90;5.88;;;;;;;6.51;100.00;100605.06;5072383;28;20090;-57
2023/12/12 00:18:45;;;;;;;12.52;5.90;;;;;;;6.50;100.00;100600.78;5072429;28;20379;-57
2023/12/12 00:21:17;;;;;;;14.00;5.97;;;;;;;6.47;100.00;100598.31;5072764;28;20040;-57
2023/12/12 00:23:45;;;;;;;12.63;5.28;;;;;;;6.47;100.00;100606.16;5072448;28;20147;-56
2023/12/12 00:26:14;;;;;;;14.07;5.90;;;;;;;6.42;100.00;100611.63;5067490;28;20520;-57
2023/12/12 00:28:43;;;;;;;13.10;5.57;;;;;;;6.43;100.00;100608.09;5068937;28;20136;-57
2023/12/12 00:31:11;;;;;;;14.25;5.57;;;;;;;6.41;100.00;100615.16;5072287;28;20090;-57
2023/12/12 00:33:40;;;;;;;14.25;5.18;;;;;;;6.39;100.00;100614.41;5072227;28;20491;-57
2023/12/12 00:36:09;;;;;;;10.57;5.30;;;;;;;6.39;100.00;100611.81;5072118;28;20110;-57
2023/12/12 00:38:38;;;;;;;11.32;5.13;;;;;;;6.39;100.00;100617.03;5072243;28;20533;-57
2023/12/12 00:41:07;;;;;;;10.30;5.38;;;;;;;6.38;100.00;100617.06;5072280;28;20510;-57
2023/12/12 00:43:35;;;;;;;10.27;4.70;;;;;;;6.38;100.00;100617.94;5071115;28;20052;-57
2023/12/12 00:46:06;;;;;;;12.48;5.03;;;;;;;6.37;100.00;100621.47;5069464;28;20040;-57
2023/12/12 00:48:34;;;;;;;13.13;4.65;;;;;;;6.36;100.00;100621.56;5070283;28;20423;-57
2023/12/12 00:51:03;;;;;;;11.68;4.90;;;;;;;6.36;100.00;100618.94;5068178;28;20243;-57
2023/12/12 00:53:32;;;;;;;13.10;5.20;;;;;;;6.37;100.00;100621.47;5068686;28;20530;-57
2023/12/12 00:56:02;;;;;;;12.45;4.60;;;;;;;6.36;100.00;100614.53;5068057;28;20036;-57
2023/12/12 00:58:30;;;;;;;10.82;4.68;;;;;;;6.35;100.00;100623.31;5066575;28;20052;-57
2023/12/12 01:00:58;;;;;;;14.65;5.20;;;;;;;6.37;100.00;100618.03;5070793;28;20044;-57
2023/12/12 01:03:26;;;;;;;13.25;4.50;;;;;;;6.36;100.00;100621.56;5071819;28;20068;-57
2023/12/12 01:05:54;;;;;;;11.38;4.90;;;;;;;6.34;100.00;100620.78;5071808;28;20056;-57
2023/12/12 01:08:22;;;;;;;12.63;4.35;;;;;;;6.33;100.00;100626.94;5071142;28;20044;-58
2023/12/12 01:10:51;;;;;;;12.65;4.63;;;;;;;6.32;100.00;100622.63;5068349;28;20127;-57
2023/12/12 01:13:20;;;;;;;13.90;5.18;;;;;;;6.32;100.00;100620.03;5069551;28;20047;-57
2023/12/12 01:15:48;;;;;;;16.35;5.22;;;;;;;6.31;100.00;100615.72;5071864;28;20151;-57
2023/12/12 01:18:16;;;;;;;13.23;5.40;;;;;;;6.30;100.00;100620.09;5069316;28;20040;-58
2023/12/12 01:20:44;;;;;;;11.75;4.80;;;;;;;6.29;100.00;100614.97;5069292;28;20063;-56
2023/12/12 01:23:13;;;;;;;10.32;4.95;;;;;;;6.26;100.00;100613.34;5072013;28;20032;-57
2023/12/12 01:25:41;;;;;;;12.25;5.55;;;;;;;6.23;100.00;100609.13;5071830;28;20048;-57
2023/12/12 01:28:09;;;;;;;15.35;5.68;;;;;;;6.21;100.00;100604.88;5072013;28;20851;-57
2023/12/12 01:30:38;;;;;;;11.30;5.40;;;;;;;6.17;100.00;100604.19;5071883;28;20044;-57
2023/12/12 01:33:07;;;;;;;13.13;6.00;;;;;;;6.12;100.00;100606.19;5071748;28;20102;-58
2023/12/12 01:35:35;;;;;;;12.93;5.53;;;;;;;6.09;100.00;100615.03;5071785;28;20557;-58
2023/12/12 01:38:05;;;;;;;15.30;5.72;;;;;;;6.07;100.00;100611.66;5072161;28;20423;-57
2023/12/12 01:40:33;;;;;;;15.55;6.10;;;;;;;5.96;100.00;100611.31;5069553;28;20123;-57
2023/12/12 01:43:05;;;;;;;14.98;6.80;;;;;;;5.92;100.00;100615.81;5067540;28;20050;-57
2023/12/12 01:45:33;;;;;;;11.98;5.95;;;;;;;5.88;100.00;100613.47;5068136;28;20044;-57
2023/12/12 01:48:03;;;;;;;15.05;6.00;;;;;;;5.81;100.00;100610.31;5068825;28;20072;-56
2023/12/12 01:50:31;;;;;;;13.38;6.30;;;;;;;5.77;100.00;100608.75;5071447;28;20101;-57
2023/12/12 01:52:59;;;;;;;13.65;6.25;;;;;;;5.73;100.00;100612.44;5071610;28;20122;-57
2023/12/12 01:55:28;;;;;;;13.02;6.43;;;;;;;5.66;100.00;100601.44;5071856;28;20380;-57
2023/12/12 01:57:56;;;;;;;10.93;5.90;;;;;;;5.63;100.00;100605.97;5071118;28;20522;-55
2023/12/12 02:00:24;;;;;;;13.63;6.65;;;;;;;5.55;100.00;100601.97;5074984;28;20052;-57
2023/12/12 02:02:53;;;;;;;14.45;6.38;;;;;;;5.46;100.00;100597.19;5073691;28;20384;-57
2023/12/12 02:05:24;;;;;;;11.32;5.80;;;;;;;5.38;100.00;100588.88;5075342;28;20466;-57
2023/12/12 02:07:54;;;;;;;12.90;6.57;;;;;;;5.34;100.00;100592.56;5072814;28;20527;-57
2023/12/12 02:10:22;;;;;;;11.43;5.70;;;;;;;5.27;100.00;100586.78;5071814;28;20492;-56
2023/12/12 02:12:53;;;;;;;10.63;5.40;;;;;;;5.18;100.00;100582.00;5074351;28;20064;-56
2023/12/12 02:15:21;;;;;;;14.07;6.43;;;;;;;5.12;100.00;100583.13;5071926;28;20492;-58
2023/12/12 02:17:50;;;;;;;10.13;6.03;;;;;;;5.08;100.00;100585.06;5070663;28;20057;-57
2023/12/12 02:20:18;;;;;;;14.02;6.50;;;;;;;5.06;100.00;100578.22;5071616;28;20102;-57
2023/12/12 02:22:47;;;;;;;14.07;6.88;;;;;;;5.00;100.00;100587.13;5071827;28;20067;-57
2023/12/12 02:25:18;;;;;;;10.07;5.97;;;;;;;4.94;100.00;100587.44;5073422;28;20052;-57
2023/12/12 02:27:47;;;;;;;10.30;5.82;;;;;;;4.84;100.00;100587.00;5074801;28;20056;-56
2023/12/12 02:30:17;;;;;;;13.60;6.47;;;;;;;4.80;100.00;100584.59;5074916;28;20059;-56
2023/12/12 02:32:45;;;;;;;10.32;5.75;;;;;;;4.74;100.00;100590.94;5073162;28;20066;-57
2023/12/12 02:35:15;;;;;;;14.73;7.15;;;;;;;4.69;100.00;100590.28;5071022;28;20578;-57
2023/12/12 02:37:43;;;;;;;12.30;7.53;;;;;;;4.64;100.00;100592.28;5071465;28;20044;-56
2023/12/12 02:40:13;;;;;;;16.45;8.18;;;;;;;4.61;100.00;100592.38;5071378;28;20056;-57
2023/12/12 02:42:44;;;;;;;14.88;7.60;;;;;;;4.53;100.00;100588.38;5074723;28;20048;-55
2023/12/12 02:45:12;;;;;;;16.38;8.88;;;;;;;4.48;100.00;100592.09;5074414;28;20045;-55
2023/12/12 02:47:41;;;;;;;15.63;7.78;;;;;;;4.45;100.00;100587.84;5072058;28;20783;-56
2023/12/12 02:50:09;;;;;;;14.95;7.68;;;;;;;4.41;100.00;100596.72;5070095;28;20048;-57
2023/12/12 02:52:38;;;;;;;18.00;7.68;;;;;;;4.39;100.00;100599.41;5071934;28;20548;-55
2023/12/12 02:55:06;;;;;;;16.63;7.38;;;;;;;4.32;100.00;100597.09;5074092;28;20098;-57
2023/12/12 02:57:36;;;;;;;14.27;7.53;;;;;;;4.25;100.00;100591.31;5074515;28;20033;-57
2023/12/12 03:00:09;;;;;;;13.82;7.45;;;;;;;4.19;100.00;100594.19;5072642;28;20102;-55
2023/12/12 03:02:37;;;;;;;11.48;7.55;;;;;;;4.15;100.00;100590.88;5071679;28;20052;-55
2023/12/12 03:05:06;;;;;;;15.40;7.88;;;;;;;4.11;100.00;100591.91;5073945;28;20044;-56
2023/12/12 03:07:37;;;;;;;13.02;7.78;;;;;;;4.07;100.00;100587.75;5073885;28;20472;-57
2023/12/12 03:10:07;;;;;;;15.75;8.00;;;;;;;4.03;100.00;100596.59;5072937;28;20079;-55
2023/12/12 03:12:39;;;;;;;16.75;9.15;;;;;;;3.99;100.00;100595.84;5072831;28;20052;-56
2023/12/12 03:15:08;;;;;;;16.75;9.15;;;;;;;3.96;100.00;100587.34;5073703;28;20048;-56
2023/12/12 03:17:36;;;;;;;14.35;9.55;;;;;;;3.89;100.00;100595.41;5072513;28;20519;-55
2023/12/12 03:20:06;;;;;;;15.25;9.82;;;;;;;3.86;100.00;100584.28;5072459;28;20044;-57
2023/12/12 03:22:34;;;;;;;13.68;9.45;;;;;;;3.82;100.00;100593.97;5071284;28;20040;-56
2023/12/12 03:25:02;;;;;;;14.63;9.27;;;;;;;3.79;100.00;100586.28;5071463;28;20044;-55
2023/12/12 03:27:31;;;;;;;14.85;9.07;;;;;;;3.74;100.00;100580.44;5070463;28;20799;-57
2023/12/12 03:30:01;;;;;;;14.07;8.10;;;;;;;3.72;100.00;100585.69;5070993;28;20044;-55
2023/12/12 03:32:29;;;;;;;14.35;8.68;;;;;;;3.68;100.00;100567.66;5073746;28;20049;-57
2023/12/12 03:34:57;;;;;;;12.20;7.50;;;;;;;3.61;100.00;100563.63;5073319;28;20044;-56
2023/12/12 03:37:25;;;;;;;14.57;8.18;;;;;;;3.57;100.00;100578.50;5073661;28;20048;-57
2023/12/12 03:39:54;;;;;;;16.92;8.65;;;;;;;3.53;100.00;100574.31;5073518;28;20132;-55
2023/12/12 03:42:22;;;;;;;15.55;7.53;;;;;;;3.46;100.00;100565.91;5072789;28;20127;-56
2023/12/12 03:44:50;;;;;;;14.07;8.00;;;;;;;3.42;100.00;100564.34;5072789;28;20067;-55
2023/12/12 03:47:19;;;;;;;14.98;8.10;;;;;;;3.39;100.00;100572.28;5073370;28;20052;-55
2023/12/12 03:49:47;;;;;;;15.35;8.57;;;;;;;3.36;100.00;100567.22;5073230;28;20071;-56
2023/12/12 03:52:16;;;;;;;10.68;7.50;;;;;;;3.32;100.00;100568.25;5073290;28;20040;-58
2023/12/12 03:54:44;;;;;;;14.75;7.60;;;;;;;3.28;100.00;100570.09;5073200;28;20044;-55
2023/12/12 03:57:12;;;;;;;12.32;7.68;;;;;;;3.25;100.00;100565.03;5072425;28;20113;-55
2023/12/12 03:59:41;;;;;;;13.15;8.02;;;;;;;3.22;100.00;100565.16;5069977;28;20044;-56
2023/12/12 04:02:09;;;;;;;14.05;8.52;;;;;;;3.17;100.00;100564.47;5071643;28;20044;-55
2023/12/12 04:04:38;;;;;;;14.02;8.20;;;;;;;3.12;100.00;100551.69;5071390;28;20052;-45
2023/12/12 04:07:06;;;;;;;11.70;7.40;;;;;;;3.08;100.00;100552.69;5072783;28;20072;-46
2023/12/12 04:09:35;;;;;;;12.65;7.40;;;;;;;3.03;100.00;100552.03;5071848;28;20049;-47
2023/12/12 04:12:03;;;;;;;12.65;6.95;;;;;;;3.00;100.00;100552.13;5068512;28;20124;-50
2023/12/12 04:14:31;;;;;;;14.10;7.50;;;;;;;2.96;100.00;100555.75;5070104;28;20053;-46
2023/12/12 04:16:59;;;;;;;11.88;7.38;;;;;;;2.94;100.00;100553.19;5072405;28;20552;-46
2023/12/12 04:19:27;;;;;;;9.77;6.72;;;;;;;2.91;100.00;100558.53;5072643;28;20522;-48
2023/12/12 04:21:57;;;;;;;11.40;6.75;;;;;;;2.86;100.00;100560.44;5072431;28;20078;-47
2023/12/12 04:24:25;;;;;;;11.25;7.15;;;;;;;2.84;100.00;100552.72;5072454;28;20040;-50
2023/12/12 04:26:53;;;;;;;12.88;7.07;;;;;;;2.83;100.00;100560.56;5069013;28;20109;-49
2023/12/12 04:29:25;;;;;;;13.10;6.78;;;;;;;2.79;100.00;100553.78;5067888;28;20059;-51
2023/12/12 04:31:54;;;;;;;13.63;8.07;;;;;;;2.78;100.00;100550.38;5071784;28;20048;-47
2023/12/12 04:34:22;;;;;;;13.85;7.90;;;;;;;2.79;100.00;100553.78;5072677;28;20422;-55
2023/12/12 04:36:50;;;;;;;11.60;7.43;;;;;;;2.78;100.00;100552.97;5072572;28;20506;-55
2023/12/12 04:39:19;;;;;;;12.30;7.43;;;;;;;2.78;100.00;100554.69;5069632;28;20076;-55
2023/12/12 04:41:48;;;;;;;13.57;7.97;;;;;;;2.77;100.00;100546.06;5068896;28;20316;-55
2023/12/12 04:44:19;;;;;;;14.45;8.27;;;;;;;2.78;100.00;100550.38;5069219;28;20370;-54
2023/12/12 04:46:47;;;;;;;11.23;8.02;;;;;;;2.77;100.00;100548.66;5069764;28;20057;-55
2023/12/12 04:49:16;;;;;;;15.38;8.13;;;;;;;2.76;100.00;100549.56;5070349;28;20373;-55
2023/12/12 04:51:45;;;;;;;13.52;8.10;;;;;;;2.79;100.00;100544.25;5070263;28;20051;-54
2023/12/12 04:54:13;;;;;;;13.75;8.07;;;;;;;2.80;100.00;100551.13;5069634;28;20048;-55
2023/12/12 04:56:43;;;;;;;13.50;8.75;;;;;;;2.80;100.00;100543.34;5071694;28;20048;-55
2023/12/12 04:59:11;;;;;;;14.35;8.40;;;;;;;2.80;100.00;100540.75;5069217;28;20040;-54
2023/12/12 05:01:39;;;;;;;14.65;9.48;;;;;;;2.82;100.00;100533.75;5069629;28;20044;-55
2023/12/12 05:04:07;;;;;;;13.63;8.88;;;;;;;2.84;100.00;100531.09;5072130;28;20101;-55
2023/12/12 05:06:38;;;;;;;14.18;9.27;;;;;;;2.83;100.00;100530.22;5072091;28;20060;-56
2023/12/12 05:09:06;;;;;;;15.23;9.07;;;;;;;2.85;100.00;100520.63;5071889;28;20131;-55
2023/12/12 05:11:34;;;;;;;13.98;8.80;;;;;;;2.86;100.00;100517.16;5071657;28;20143;-45
2023/12/12 05:14:06;;;;;;;14.75;9.15;;;;;;;2.88;100.00;100509.28;5072037;28;20483;-48
2023/12/12 05:16:34;;;;;;;18.10;10.18;;;;;;;2.88;100.00;100512.72;5071654;28;20106;-46
2023/12/12 05:19:03;;;;;;;16.90;10.00;;;;;;;2.89;100.00;100503.19;5070527;28;20040;-46
2023/12/12 05:21:34;;;;;;;13.38;9.13;;;;;;;2.88;100.00;100502.34;5071798;28;20074;-46
2023/12/12 05:24:02;;;;;;;16.95;8.93;;;;;;;2.90;100.00;100501.44;5071474;28;20049;-45
2023/12/12 05:26:30;;;;;;;15.98;9.10;;;;;;;2.88;100.00;100496.31;5071468;28;20256;-47
2023/12/12 05:28:58;;;;;;;16.15;8.82;;;;;;;2.88;100.00;100491.94;5071622;28;20044;-47
2023/12/12 05:31:28;;;;;;;19.42;9.38;;;;;;;2.84;100.00;100495.56;5071773;28;20451;-47
2023/12/12 05:33:59;;;;;;;;;;;;;;;2.84;100.00;100492.97;5073526;28;20036;-46
2023/12/12 05:36:27;;;;;;;19.35;8.90;;;;;;;2.84;100.00;100485.19;5072781;28;20263;-46
2023/12/12 05:38:55;;;;;;;19.88;9.43;;;;;;;2.84;100.00;100485.19;5072577;28;20041;-49
2023/12/12 05:41:23;;;;;;;17.17;9.55;;;;;;;2.83;100.00;100475.69;5075567;28;20127;-46
2023/12/12 05:43:51;;;;;;;17.20;8.85;;;;;;;2.82;100.00;100467.94;5074032;28;20063;-45
2023/12/12 05:46:20;;;;;;;14.45;8.43;;;;;;;2.80;100.00;100467.19;5074022;28;20059;-46
2023/12/12 05:48:50;;;;;;;20.67;9.25;;;;;;;2.78;100.00;100479.38;5074271;28;20512;-47
2023/12/12 05:51:18;;;;;;;17.20;8.75;;;;;;;2.76;100.00;100476.00;5074341;28;20075;-48
2023/12/12 05:53:46;;;;;;;16.75;8.73;;;;;;;2.75;100.00;100479.50;5074382;28;20405;-45
2023/12/12 05:56:14;;;;;;;16.98;9.60;;;;;;;2.71;100.00;100481.34;5075172;28;20040;-46
2023/12/12 05:58:45;;;;;;;14.77;8.63;;;;;;;2.71;100.00;100486.53;5075321;28;20515;-46
2023/12/12 06:01:17;;;;;;;16.75;8.27;;;;;;;2.67;100.00;100478.03;5075163;28;20052;-45
2023/12/12 06:03:46;;;;;;;14.98;8.18;;;;;;;2.65;100.00;100486.78;5074758;28;20407;-50
2023/12/12 06:06:16;;;;;;;16.17;8.30;;;;;;;2.63;100.00;100480.78;5074709;28;20049;-48
2023/12/12 06:08:47;;;;;;;15.30;7.72;;;;;;;2.59;100.00;100482.69;5075037;28;20040;-49
2023/12/12 06:11:16;;;;;;;18.73;12.20;;;;;;;2.58;100.00;100482.72;5075223;28;20133;-47
2023/12/12 06:13:45;;;;;;;17.23;9.10;;;;;;;2.60;100.00;100489.53;5074990;28;20080;-47
2023/12/12 06:16:14;;;;;;;17.98;8.70;;;;;;;2.57;100.00;100491.44;5074731;28;20078;-48
2023/12/12 06:18:45;;;;;;;13.67;8.27;;;;;;;2.55;100.00;100494.09;5074882;28;20111;-45
2023/12/12 06:21:15;;;;;;;15.57;8.80;;;;;;;2.56;100.00;100492.31;5074633;28;20427;-46
2023/12/12 06:23:46;;;;;;;12.93;8.63;;;;;;;2.52;100.00;100491.59;5074770;28;20045;-45
2023/12/12 06:26:15;;;;;;;17.90;8.60;;;;;;;2.51;100.00;100495.94;5074522;28;20049;-47
2023/12/12 06:28:43;;;;;;;12.20;7.60;;;;;;;2.54;100.00;100492.38;5074612;28;20123;-46
2023/12/12 06:31:11;;;;;;;12.85;8.07;;;;;;;2.54;100.00;100490.63;5074507;28;20041;-48
2023/12/12 06:33:40;;;;;;;18.95;8.30;;;;;;;2.56;100.00;100482.78;5074632;28;20589;-47
2023/12/12 06:36:09;;;;;;;15.30;7.50;;;;;;;2.58;100.00;100487.91;5074489;28;20059;-46
2023/12/12 06:38:39;;;;;;;13.55;8.25;;;;;;;2.59;100.00;100487.88;5074329;28;20040;-46
2023/12/12 06:41:08;;;;;;;15.18;8.68;;;;;;;2.61;100.00;100487.81;5074248;28;20036;-47
2023/12/12 06:43:36;;;;;;;17.30;9.02;;;;;;;2.64;100.00;100485.09;5074375;28;20052;-48
2023/12/12 06:46:05;;;;;;;18.35;8.43;;;;;;;2.67;100.00;100477.19;5072814;28;20419;-47
2023/12/12 06:48:33;;;;;;;15.82;7.85;;;;;;;2.69;100.00;100476.22;5074329;28;20410;-46
2023/12/12 06:51:02;;;;;;;17.40;8.45;;;;;;;2.72;100.00;100475.25;5074156;28;20048;-46
2023/12/12 06:53:30;;;;;;;19.85;8.38;;;;;;;2.75;100.00;100466.50;5074312;28;20423;-46
2023/12/12 06:55:59;;;;;;;15.38;8.15;;;;;;;2.81;100.00;100459.31;5074163;28;20403;-46
2023/12/12 06:58:27;;;;;;;19.52;8.23;;;;;;;2.87;100.00;100453.88;5074139;28;20049;-47
2023/12/12 07:00:56;;;;;;;15.55;7.72;;;;;;;2.90;100.00;100462.47;5073888;28;20408;-46
2023/12/12 07:03:24;;;;;;;19.77;8.30;;;;;;;2.93;100.00;100457.16;5073167;28;20121;-55
2023/12/12 07:05:52;;;;;;;16.02;7.45;;;;;;;2.95;100.00;100450.16;5073167;28;20040;-56
2023/12/12 07:08:22;;;;;;;22.13;8.23;;;;;;;3.00;100.00;100437.81;5073995;28;20128;-56
2023/12/12 07:10:50;;;;;;;23.13;7.85;;;;;;;3.11;100.00;100427.84;5073584;28;20076;-55
2023/12/12 07:13:19;;;;;;;21.92;8.70;;;;;;;3.18;100.00;100436.25;5070828;28;20052;-56
2023/12/12 07:16:05;;;;;;;23.63;8.52;;;;;;;3.21;100.00;100431.75;5072818;28;20048;-55
2023/12/12 07:18:34;;;;;;;32.28;8.73;;;;;;;3.27;100.00;100428.03;5074052;28;20399;-56
2023/12/12 07:21:03;;;;;;;25.67;8.73;;;;;;;3.30;100.00;100427.94;5072691;28;20056;-56
2023/12/12 07:23:31;;;;;;;18.67;8.38;;;;;;;3.34;100.00;100431.22;5070149;28;20063;-56
2023/12/12 07:25:59;;;;;;;27.30;9.43;;;;;;;3.37;100.00;100431.97;5071749;28;20128;-55
2023/12/12 07:28:29;;;;;;;28.00;9.23;;;;;;;3.43;100.00;100440.41;5073850;28;20788;-55
2023/12/12 07:30:57;;;;;;;25.80;8.43;;;;;;;3.46;100.00;100437.69;5072149;28;20127;-56
2023/12/12 07:33:25;;;;;;;26.48;9.02;;;;;;;3.51;100.00;100433.97;5071299;28;20060;-56
2023/12/12 07:35:54;;;;;;;21.83;9.25;;;;;;;3.54;100.00;100444.28;5073720;28;20155;-55
2023/12/12 07:38:22;;;;;;;37.85;9.95;;;;;;;3.58;100.00;100431.13;5073828;28;20045;-55
2023/12/12 07:40:50;;;;;;;24.25;8.88;;;;;;;3.62;100.00;100424.88;5073789;28;20567;-56
2023/12/12 07:43:18;;;;;;;29.23;8.95;;;;;;;3.69;100.00;100426.31;5073705;28;20047;-56
2023/12/12 07:45:48;;;;;;;26.15;9.60;;;;;;;3.80;100.00;100429.28;5072312;28;20048;-57
2023/12/12 07:48:18;;;;;;;21.20;8.52;;;;;;;3.86;100.00;100423.81;5072769;28;20044;-56
2023/12/12 07:50:46;;;;;;;20.50;8.50;;;;;;;3.92;100.00;100420.09;5072853;28;20040;-55
2023/12/12 07:53:14;;;;;;;27.00;8.90;;;;;;;4.00;100.00;100411.97;5073150;28;20051;-56
2023/12/12 07:55:42;;;;;;;26.13;9.35;;;;;;;4.08;100.00;100402.06;5073036;28;20121;-55
2023/12/12 07:58:11;;;;;;;23.98;10.20;;;;;;;4.20;100.00;100406.69;5072517;28;20500;-55
2023/12/12 08:00:39;;;;;;;21.23;8.18;;;;;;;4.30;100.00;100409.72;5073088;28;20041;-55
2023/12/12 08:03:08;;;;;;;30.08;10.00;;;;;;;4.44;100.00;100397.81;5073019;28;20492;-56
2023/12/12 08:05:37;;;;;;;31.23;9.70;;;;;;;4.44;100.00;100403.88;5072742;28;20559;-55
2023/12/12 08:08:06;;;;;;;27.13;8.77;;;;;;;4.50;100.00;100403.59;5071422;28;20396;-56
2023/12/12 08:10:36;;;;;;;27.13;9.85;;;;;;;4.54;100.00;100399.94;5070201;28;20048;-55
2023/12/12 08:13:04;;;;;;;26.58;9.32;;;;;;;4.57;100.00;100393.75;5072170;28;20048;-56
2023/12/12 08:15:33;;;;;;;32.72;9.55;;;;;;;4.61;100.00;100395.28;5072872;28;20508;-54
2023/12/12 08:18:02;;;;;;;22.75;9.23;;;;;;;4.65;100.00;100391.63;5073005;28;20495;-54
2023/12/12 08:20:32;;;;;;;30.75;10.20;;;;;;;4.70;100.00;100394.00;5072652;28;20036;-56
2023/12/12 08:23:00;;;;;;;28.73;9.45;;;;;;;4.77;100.00;100392.75;5072526;28;20040;-56
2023/12/12 08:25:28;;;;;;;29.48;9.40;;;;;;;4.82;100.00;100393.41;5072564;28;20059;-55
2023/12/12 08:27:57;;;;;;;29.05;10.40;;;;;;;4.87;100.00;100396.63;5072731;28;20105;-56
2023/12/12 08:30:25;;;;;;;28.55;9.90;;;;;;;4.92;100.00;100396.41;5072765;28;20384;-56
2023/12/12 08:32:53;;;;;;;28.58;10.85;;;;;;;4.98;100.00;100395.28;5070193;28;20109;-56
2023/12/12 08:35:22;;;;;;;32.03;10.38;;;;;;;5.02;100.00;100386.38;5069777;28;20036;-57
2023/12/12 08:37:51;;;;;;;27.02;10.57;;;;;;;5.09;100.00;100390.38;5069432;28;20044;-55
2023/12/12 08:40:20;;;;;;;32.15;11.35;;;;;;;5.14;100.00;100371.88;5069230;28;20063;-55
2023/12/12 08:42:48;;;;;;;25.25;10.43;;;;;;;5.20;100.00;100364.59;5069428;28;20056;-56
2023/12/12 08:45:16;;;;;;;33.30;13.30;;;;;;;5.27;100.00;100366.91;5072266;28;20055;-56
2023/12/12 08:47:45;;;;;;;26.15;10.73;;;;;;;5.30;100.00;100369.34;5072040;28;20049;-56
2023/12/12 08:50:13;;;;;;;24.58;11.27;;;;;;;5.34;100.00;100357.84;5070346;28;20052;-56
2023/12/12 08:52:41;;;;;;;27.13;11.13;;;;;;;5.35;100.00;100357.75;5069298;28;20049;-57
2023/12/12 08:55:11;;;;;;;30.10;11.40;;;;;;;5.38;100.00;100357.59;5072429;28;20466;-56
2023/12/12 08:57:40;;;;;;;28.40;10.35;;;;;;;5.40;100.00;100354.94;5071908;28;20479;-56
2023/12/12 09:00:10;;;;;;;22.83;8.95;;;;;;;5.41;100.00;100354.84;5072241;28;20435;-56
2023/12/12 09:02:39;;;;;;;25.88;9.57;;;;;;;5.46;100.00;100357.22;5072108;28;20102;-55
2023/12/12 09:05:08;;;;;;;25.45;10.02;;;;;;;5.51;100.00;100350.00;5071981;28;20040;-46
2023/12/12 09:07:36;;;;;;;31.92;10.13;;;;;;;5.53;100.00;100342.94;5071560;28;20100;-47
2023/12/12 09:10:06;;;;;;;32.40;10.40;;;;;;;5.59;100.00;100337.41;5071372;28;20048;-47
2023/12/12 09:12:36;;;;;;;32.00;10.02;;;;;;;5.67;100.00;100341.38;5071905;28;20534;-46
2023/12/12 09:15:06;;;;;;;29.77;10.25;;;;;;;5.69;100.00;100345.59;5071598;28;20048;-47
2023/12/12 09:17:34;;;;;;;26.23;9.80;;;;;;;5.75;100.00;100342.66;5070252;28;20048;-56
2023/12/12 09:20:04;;;;;;;27.13;8.75;;;;;;;5.80;100.00;100339.81;5071415;28;20048;-56
2023/12/12 09:22:32;;;;;;;23.85;9.07;;;;;;;5.86;100.00;100343.84;5071618;28;20060;-55
2023/12/12 09:25:01;;;;;;;28.77;9.05;;;;;;;5.88;100.00;100337.63;5070407;28;20106;-57
2023/12/12 09:27:29;;;;;;;32.63;9.27;;;;;;;5.93;100.00;100334.75;5067636;28;20127;-57
2023/12/12 09:29:59;;;;;;;19.52;8.95;;;;;;;5.98;100.00;100329.34;5070965;28;20119;-56
2023/12/12 09:32:27;;;;;;;25.80;8.50;;;;;;;6.02;100.00;100323.03;5067474;28;20567;-57
2023/12/12 09:34:55;;;;;;;29.25;9.63;;;;;;;6.09;100.00;100319.13;5069482;28;20033;-57
2023/12/12 09:37:24;;;;;;;21.05;9.52;;;;;;;6.09;100.00;100321.75;5071778;28;20116;-57
2023/12/12 09:39:52;;;;;;;32.08;9.32;;;;;;;6.16;100.00;100302.22;5071924;28;20119;-56
2023/12/12 09:42:24;;;;;;;26.05;10.55;;;;;;;6.28;100.00;100299.84;5068427;28;20044;-58
2023/12/12 09:44:58;;;;;;;25.90;9.68;;;;;;;6.30;100.00;100290.16;5068782;28;20060;-56
2023/12/12 09:47:28;;;;;;;25.15;9.82;;;;;;;6.35;100.00;100298.56;5071538;28;20053;-57
2023/12/12 09:49:59;;;;;;;30.42;9.95;;;;;;;6.40;100.00;100296.56;5070359;28;20084;-57
2023/12/12 09:52:30;;;;;;;32.90;9.70;;;;;;;6.45;100.00;100284.09;5069293;28;20503;-56
2023/12/12 09:54:59;;;;;;;25.08;8.82;;;;;;;6.52;100.00;100282.78;5067508;28;20076;-56
2023/12/12 09:57:29;;;;;;;31.35;9.35;;;;;;;6.55;100.00;100285.22;5067056;28;20051;-57
2023/12/12 09:59:58;;;;;;;27.70;9.32;;;;;;;6.65;100.00;100272.47;5068739;28;20052;-57
2023/12/12 10:02:34;;;;;;;27.33;9.60;;;;;;;6.74;100.00;100261.50;5071151;28;20037;-57
2023/12/12 10:05:04;;;;;;;26.02;9.82;;;;;;;6.80;100.00;100257.66;5069782;28;20052;-57
2023/12/12 10:07:33;;;;;;;32.50;10.23;;;;;;;6.85;100.00;100246.97;5067960;28;20057;-57
2023/12/12 10:10:05;;;;;;;30.92;11.10;;;;;;;6.94;100.00;100246.44;5068374;28;20079;-57
2023/12/12 10:12:33;;;;;;;26.55;9.80;;;;;;;6.95;100.00;100245.47;5071346;28;20588;-57
2023/12/12 10:15:01;;;;;;;32.53;9.52;;;;;;;7.03;100.00;100240.63;5071236;28;20426;-57
2023/12/12 10:17:39;;;;;;;30.45;9.02;;;;;;;7.07;100.00;100234.28;5069440;28;20044;-56
2023/12/12 10:20:10;;;;;;;30.63;9.02;;;;;;;7.05;100.00;100230.09;5069990;28;20055;-55
2023/12/12 10:22:38;;;;;;;30.17;8.43;;;;;;;7.08;100.00;100224.66;5074355;28;20098;-58
2023/12/12 10:25:11;;;;;;;25.17;8.48;;;;;;;7.15;100.00;100228.59;5071733;28;20060;-56
2023/12/12 10:27:42;;;;;;;26.10;7.75;;;;;;;7.24;100.00;100220.19;5072190;28;20124;-57
2023/12/12 10:30:13;;;;;;;29.35;7.75;;;;;;;7.34;100.00;100214.41;5071850;28;20422;-57
2023/12/12 10:32:43;;;;;;;23.77;7.72;;;;;;;7.36;100.00;100208.16;5070087;28;20052;-57
2023/12/12 10:35:11;;;;;;;26.27;8.35;;;;;;;7.37;100.00;100214.19;5074640;28;20557;-57
2023/12/12 10:37:40;;;;;;;23.08;7.65;;;;;;;7.44;100.00;100203.28;5074620;28;20500;-57
2023/12/12 10:40:16;;;;;;;24.25;7.50;;;;;;;7.45;100.00;100202.31;5074275;28;20091;-57
2023/12/12 10:42:44;;;;;;;24.15;7.18;;;;;;;7.56;100.00;100190.34;5074603;28;20047;-56
2023/12/12 10:45:14;;;;;;;27.30;7.88;;;;;;;7.62;100.00;100189.94;5074349;28;20058;-56
2023/12/12 10:47:46;;;;;;;29.98;8.23;;;;;;;7.66;100.00;100183.59;5074265;28;20545;-57
2023/12/12 10:50:16;;;;;;;27.00;6.50;;;;;;;7.71;100.00;100186.75;5074642;28;20052;-56
2023/12/12 10:52:46;;;;;;;20.15;6.78;;;;;;;7.79;100.00;100178.41;5072609;28;20090;-57
2023/12/12 10:55:17;;;;;;;28.33;7.25;;;;;;;7.87;100.00;100172.72;5070965;28;20046;-57
2023/12/12 10:57:48;;;;;;;27.33;6.97;;;;;;;7.92;100.00;100168.84;5073737;28;20052;-57
2023/12/12 11:00:20;;;;;;;25.27;6.28;;;;;;;7.99;100.00;100164.06;5074217;28;20064;-57
2023/12/12 11:02:50;;;;;;;;;;;;;;;8.06;100.00;100169.72;5074598;28;20085;-57
2023/12/12 11:05:18;;;;;;;22.13;6.28;;;;;;;8.11;100.00;100171.09;5073810;28;19924;-57
2023/12/12 11:07:50;;;;;;;29.25;7.10;;;;;;;8.10;100.00;100158.94;5073601;28;20045;-57
2023/12/12 11:10:23;;;;;;;22.20;6.18;;;;;;;8.19;100.00;100160.09;5073759;28;20040;-60
2023/12/12 11:12:54;;;;;;;23.25;6.82;;;;;;;8.24;100.00;100146.72;5073702;28;20124;-55
2023/12/12 11:15:25;;;;;;;25.85;7.28;;;;;;;8.31;100.00;100142.75;5073858;28;20522;-57
2023/12/12 11:17:55;;;;;;;21.38;6.20;;;;;;;8.38;100.00;100144.00;5072394;28;20438;-57
2023/12/12 11:20:24;;;;;;;23.52;6.32;;;;;;;8.40;100.00;100136.88;5070658;28;20585;-57
2023/12/12 11:22:53;;;;;;;23.38;6.40;;;;;;;8.42;100.00;100124.50;5073492;28;20051;-57
2023/12/12 11:25:22;;;;;;;19.50;6.30;;;;;;;8.47;100.00;100129.50;5072408;28;20036;-58